<?xml version="1.0" encoding="UTF-8" standalone="no" ?>
<gpx xmlns="http://www.topografix.com/GPX/1/1" xmlns:xsi="http://www.w3.org/2001/XMLSchema-instance" xsi:schemaLocation="http://www.topografix.com/GPX/1/1 http://www.topografix.com/GPX/1/1/gpx.xsd" version="1.1" creator="VisuGPX - https://www.visugpx.com">
  <metadata>
    <name>Carantec_Tour_Callot_14-23km</name>
    <desc><![CDATA[gnerando idor:8977980_9226405_9307629]]></desc>
  </metadata>
  <trk>
    <name><![CDATA[Carantec_Tour_CallotCourt_14.2km-9307629]]></name>
    <extensions>
      <line xmlns="http://www.topografix.com/GPX/gpx_style/0/2">
        <color>FF0000</color>
        <width>4</width>
      </line>
    </extensions>
    <trkseg>
      <trkpt lat="48.65506" lon="-3.90265">
        <ele>8</ele>
        <time>2023-10-31T19:30:01Z</time>
      </trkpt>
      <trkpt lat="48.65404" lon="-3.90225">
        <ele>13</ele>
        <time>2023-10-31T19:32:22Z</time>
      </trkpt>
      <trkpt lat="48.65371" lon="-3.90225">
        <ele>14</ele>
        <time>2023-10-31T19:33:06Z</time>
      </trkpt>
      <trkpt lat="48.65305" lon="-3.90298">
        <ele>31</ele>
        <time>2023-10-31T19:34:55Z</time>
      </trkpt>
      <trkpt lat="48.65327" lon="-3.90408">
        <ele>53</ele>
        <time>2023-10-31T19:36:36Z</time>
      </trkpt>
      <trkpt lat="48.65286" lon="-3.90461">
        <ele>58</ele>
        <time>2023-10-31T19:37:48Z</time>
      </trkpt>
      <trkpt lat="48.6529" lon="-3.90525">
        <ele>60</ele>
        <time>2023-10-31T19:38:45Z</time>
      </trkpt>
      <trkpt lat="48.65347" lon="-3.90576">
        <ele>58</ele>
        <time>2023-10-31T19:40:13Z</time>
      </trkpt>
      <trkpt lat="48.65315" lon="-3.90656">
        <ele>59</ele>
        <time>2023-10-31T19:41:35Z</time>
      </trkpt>
      <trkpt lat="48.65307" lon="-3.90735">
        <ele>60</ele>
        <time>2023-10-31T19:42:46Z</time>
      </trkpt>
      <trkpt lat="48.65274" lon="-3.90705">
        <ele>60</ele>
        <time>2023-10-31T19:43:37Z</time>
      </trkpt>
      <trkpt lat="48.65249" lon="-3.90741">
        <ele>60</ele>
        <time>2023-10-31T19:44:23Z</time>
      </trkpt>
      <trkpt lat="48.65234" lon="-3.90801">
        <ele>60</ele>
        <time>2023-10-31T19:45:20Z</time>
      </trkpt>
      <trkpt lat="48.65225" lon="-3.90854">
        <ele>61</ele>
        <time>2023-10-31T19:46:08Z</time>
      </trkpt>
      <trkpt lat="48.65221" lon="-3.90991">
        <ele>58</ele>
        <time>2023-10-31T19:48:09Z</time>
      </trkpt>
      <trkpt lat="48.65179" lon="-3.91104">
        <ele>52</ele>
        <time>2023-10-31T19:50:03Z</time>
      </trkpt>
      <trkpt lat="48.65193" lon="-3.91279">
        <ele>47</ele>
        <time>2023-10-31T19:52:39Z</time>
      </trkpt>
      <trkpt lat="48.65275" lon="-3.91302">
        <ele>50</ele>
        <time>2023-10-31T19:54:30Z</time>
      </trkpt>
      <trkpt lat="48.65339" lon="-3.91361">
        <ele>52</ele>
        <time>2023-10-31T19:56:10Z</time>
      </trkpt>
      <trkpt lat="48.65383" lon="-3.91411">
        <ele>52</ele>
        <time>2023-10-31T19:57:23Z</time>
      </trkpt>
      <trkpt lat="48.65456" lon="-3.91462">
        <ele>53</ele>
        <time>2023-10-31T19:59:11Z</time>
      </trkpt>
      <trkpt lat="48.65566" lon="-3.91642">
        <ele>50</ele>
        <time>2023-10-31T20:02:47Z</time>
      </trkpt>
      <trkpt lat="48.6559" lon="-3.91837">
        <ele>45</ele>
        <time>2023-10-31T20:05:42Z</time>
      </trkpt>
      <trkpt lat="48.65625" lon="-3.91912">
        <ele>43</ele>
        <time>2023-10-31T20:07:03Z</time>
      </trkpt>
      <trkpt lat="48.65704" lon="-3.92007">
        <ele>41</ele>
        <time>2023-10-31T20:09:17Z</time>
      </trkpt>
      <trkpt lat="48.65875" lon="-3.9242">
        <ele>34</ele>
        <time>2023-10-31T20:16:27Z</time>
      </trkpt>
      <trkpt lat="48.65978" lon="-3.92566">
        <ele>24</ele>
        <time>2023-10-31T20:19:35Z</time>
      </trkpt>
      <trkpt lat="48.66069" lon="-3.92584">
        <ele>18</ele>
        <time>2023-10-31T20:21:38Z</time>
      </trkpt>
      <trkpt lat="48.66123" lon="-3.92688">
        <ele>11</ele>
        <time>2023-10-31T20:23:34Z</time>
      </trkpt>
      <trkpt lat="48.6614" lon="-3.92785">
        <ele>5</ele>
        <time>2023-10-31T20:25:03Z</time>
      </trkpt>
      <trkpt lat="48.66349" lon="-3.92814">
        <ele>2</ele>
        <time>2023-10-31T20:29:43Z</time>
      </trkpt>
      <trkpt lat="48.66614" lon="-3.92671">
        <ele>4</ele>
        <time>2023-10-31T20:35:58Z</time>
      </trkpt>
      <trkpt lat="48.66697" lon="-3.92567">
        <ele>7</ele>
        <time>2023-10-31T20:38:22Z</time>
      </trkpt>
      <trkpt lat="48.66835" lon="-3.92525">
        <ele>5</ele>
        <time>2023-10-31T20:41:30Z</time>
      </trkpt>
      <trkpt lat="48.67051" lon="-3.92336">
        <ele>6</ele>
        <time>2023-10-31T20:47:03Z</time>
      </trkpt>
      <trkpt lat="48.67175" lon="-3.92275">
        <ele>7</ele>
        <time>2023-10-31T20:49:57Z</time>
      </trkpt>
      <trkpt lat="48.67413" lon="-3.92318">
        <ele>5</ele>
        <time>2023-10-31T20:55:17Z</time>
      </trkpt>
      <trkpt lat="48.67465" lon="-3.92499">
        <ele>1</ele>
        <time>2023-10-31T20:58:11Z</time>
      </trkpt>
      <trkpt lat="48.68087" lon="-3.92369">
        <ele>5</ele>
        <time>2023-10-31T21:12:09Z</time>
      </trkpt>
      <trkpt lat="48.68369" lon="-3.92223">
        <ele>6</ele>
        <time>2023-10-31T21:18:46Z</time>
      </trkpt>
      <trkpt lat="48.68535" lon="-3.92365">
        <ele>4</ele>
        <time>2023-10-31T21:23:01Z</time>
      </trkpt>
      <trkpt lat="48.68678" lon="-3.92509">
        <ele>8</ele>
        <time>2023-10-31T21:26:50Z</time>
      </trkpt>
      <trkpt lat="48.68784" lon="-3.92588">
        <ele>5</ele>
        <time>2023-10-31T21:29:27Z</time>
      </trkpt>
      <trkpt lat="48.68937" lon="-3.925">
        <ele>6</ele>
        <time>2023-10-31T21:33:06Z</time>
      </trkpt>
      <trkpt lat="48.6896" lon="-3.92455">
        <ele>4</ele>
        <time>2023-10-31T21:33:56Z</time>
      </trkpt>
      <trkpt lat="48.6883" lon="-3.92189">
        <ele>8</ele>
        <time>2023-10-31T21:38:48Z</time>
      </trkpt>
      <trkpt lat="48.68654" lon="-3.92283">
        <ele>5</ele>
        <time>2023-10-31T21:42:57Z</time>
      </trkpt>
      <trkpt lat="48.68354" lon="-3.92249">
        <ele>5</ele>
        <time>2023-10-31T21:49:38Z</time>
      </trkpt>
      <trkpt lat="48.6747" lon="-3.92481">
        <ele>1</ele>
        <time>2023-10-31T22:09:35Z</time>
      </trkpt>
      <trkpt lat="48.6743" lon="-3.92301">
        <ele>6</ele>
        <time>2023-10-31T22:12:23Z</time>
      </trkpt>
      <trkpt lat="48.67538" lon="-3.92155">
        <ele>6</ele>
        <time>2023-10-31T22:15:36Z</time>
      </trkpt>
      <trkpt lat="48.67362" lon="-3.91889">
        <ele>12</ele>
        <time>2023-10-31T22:21:08Z</time>
      </trkpt>
      <trkpt lat="48.67283" lon="-3.91726">
        <ele>18</ele>
        <time>2023-10-31T22:24:06Z</time>
      </trkpt>
      <trkpt lat="48.67351" lon="-3.91468">
        <ele>10</ele>
        <time>2023-10-31T22:28:11Z</time>
      </trkpt>
      <trkpt lat="48.67345" lon="-3.91296">
        <ele>6</ele>
        <time>2023-10-31T22:30:42Z</time>
      </trkpt>
      <trkpt lat="48.67181" lon="-3.91211">
        <ele>11</ele>
        <time>2023-10-31T22:34:34Z</time>
      </trkpt>
      <trkpt lat="48.67015" lon="-3.91169">
        <ele>15</ele>
        <time>2023-10-31T22:38:18Z</time>
      </trkpt>
      <trkpt lat="48.66948" lon="-3.90987">
        <ele>6</ele>
        <time>2023-10-31T22:41:22Z</time>
      </trkpt>
      <trkpt lat="48.6692" lon="-3.90747">
        <ele>4</ele>
        <time>2023-10-31T22:44:57Z</time>
      </trkpt>
      <trkpt lat="48.66999" lon="-3.90575">
        <ele>11</ele>
        <time>2023-10-31T22:48:01Z</time>
      </trkpt>
      <trkpt lat="48.66994" lon="-3.90433">
        <ele>13</ele>
        <time>2023-10-31T22:50:07Z</time>
      </trkpt>
      <trkpt lat="48.67028" lon="-3.90344">
        <ele>14</ele>
        <time>2023-10-31T22:51:37Z</time>
      </trkpt>
      <trkpt lat="48.6704" lon="-3.90188">
        <ele>12</ele>
        <time>2023-10-31T22:53:56Z</time>
      </trkpt>
      <trkpt lat="48.67062" lon="-3.89989">
        <ele>6</ele>
        <time>2023-10-31T22:56:53Z</time>
      </trkpt>
      <trkpt lat="48.67113" lon="-3.8988">
        <ele>10</ele>
        <time>2023-10-31T22:58:51Z</time>
      </trkpt>
      <trkpt lat="48.6722" lon="-3.89837">
        <ele>15</ele>
        <time>2023-10-31T23:01:19Z</time>
      </trkpt>
      <trkpt lat="48.67237" lon="-3.89734">
        <ele>12</ele>
        <time>2023-10-31T23:02:52Z</time>
      </trkpt>
      <trkpt lat="48.67147" lon="-3.8958">
        <ele>20</ele>
        <time>2023-10-31T23:05:54Z</time>
      </trkpt>
      <trkpt lat="48.67107" lon="-3.89297">
        <ele>16</ele>
        <time>2023-10-31T23:10:09Z</time>
      </trkpt>
      <trkpt lat="48.67096" lon="-3.89064">
        <ele>8</ele>
        <time>2023-10-31T23:13:35Z</time>
      </trkpt>
      <trkpt lat="48.6696" lon="-3.89073">
        <ele>19</ele>
        <time>2023-10-31T23:16:36Z</time>
      </trkpt>
      <trkpt lat="48.66886" lon="-3.88979">
        <ele>5</ele>
        <time>2023-10-31T23:18:45Z</time>
      </trkpt>
      <trkpt lat="48.66699" lon="-3.89082">
        <ele>8</ele>
        <time>2023-10-31T23:23:11Z</time>
      </trkpt>
      <trkpt lat="48.66648" lon="-3.89365">
        <ele>10</ele>
        <time>2023-10-31T23:27:29Z</time>
      </trkpt>
      <trkpt lat="48.66761" lon="-3.89391">
        <ele>36</ele>
        <time>2023-10-31T23:30:02Z</time>
      </trkpt>
      <trkpt lat="48.66835" lon="-3.89477">
        <ele>45</ele>
        <time>2023-10-31T23:32:06Z</time>
      </trkpt>
      <trkpt lat="48.66687" lon="-3.89846">
        <ele>38</ele>
        <time>2023-10-31T23:38:27Z</time>
      </trkpt>
      <trkpt lat="48.66614" lon="-3.90198">
        <ele>27</ele>
        <time>2023-10-31T23:43:52Z</time>
      </trkpt>
      <trkpt lat="48.66517" lon="-3.90026">
        <ele>9</ele>
        <time>2023-10-31T23:47:11Z</time>
      </trkpt>
      <trkpt lat="48.66478" lon="-3.90121">
        <ele>7</ele>
        <time>2023-10-31T23:48:50Z</time>
      </trkpt>
      <trkpt lat="48.66496" lon="-3.90266">
        <ele>8</ele>
        <time>2023-10-31T23:51:00Z</time>
      </trkpt>
      <trkpt lat="48.66447" lon="-3.90416">
        <ele>7</ele>
        <time>2023-10-31T23:53:27Z</time>
      </trkpt>
      <trkpt lat="48.66305" lon="-3.90579">
        <ele>9</ele>
        <time>2023-10-31T23:57:25Z</time>
      </trkpt>
      <trkpt lat="48.66068" lon="-3.90618">
        <ele>5</ele>
        <time>2023-11-01T00:02:43Z</time>
      </trkpt>
      <trkpt lat="48.65857" lon="-3.9056">
        <ele>3</ele>
        <time>2023-11-01T00:07:29Z</time>
      </trkpt>
      <trkpt lat="48.6566" lon="-3.90435">
        <ele>5</ele>
        <time>2023-11-01T00:12:14Z</time>
      </trkpt>
      <trkpt lat="48.65511" lon="-3.90271">
        <ele>8</ele>
        <time>2023-11-01T00:16:20Z</time>
      </trkpt>
    </trkseg>
  </trk>
</gpx>